createdAt,value
2022-08-25T00:00:23.460Z,9.02
2022-08-25T00:03:07.448Z,9.18
2022-08-25T00:05:37.327Z,8.23
2022-08-25T00:08:07.867Z,8.20
2022-08-25T00:10:40.558Z,9.43
2022-08-25T00:13:10.993Z,9.30
2022-08-25T00:15:39.944Z,8.40
2022-08-25T00:18:16.593Z,9.20
2022-08-25T00:20:49.820Z,8.38
2022-08-25T00:25:47.806Z,7.35
2022-08-25T00:28:19.391Z,7.70
2022-08-25T00:30:50.868Z,8.93
2022-08-25T00:33:21.249Z,7.38
2022-08-25T00:35:50.429Z,8.05
2022-08-25T00:38:19.024Z,7.95
2022-08-25T00:41:06.024Z,7.47
2022-08-25T00:43:45.934Z,7.78
2022-08-25T00:46:16.388Z,6.95
2022-08-25T00:48:47.059Z,7.43
2022-08-25T00:51:21.093Z,6.85
2022-08-25T00:53:50.218Z,6.50
2022-08-25T00:56:19.625Z,6.40
2022-08-25T00:58:53.453Z,6.50
2022-08-25T01:01:22.433Z,5.65
2022-08-25T01:03:51.383Z,6.20
2022-08-25T01:06:20.755Z,6.65
2022-08-25T01:08:49.922Z,6.28
2022-08-25T01:11:18.698Z,6.28
2022-08-25T01:13:54.127Z,6.65
2022-08-25T01:16:24.219Z,6.50
2022-08-25T01:18:57.901Z,6.85
2022-08-25T01:21:30.853Z,7.72
2022-08-25T01:24:02.091Z,7.53
2022-08-25T01:26:33.169Z,7.55
2022-08-25T01:29:25.710Z,6.57
2022-08-25T01:31:58.230Z,6.93
2022-08-25T01:34:28.820Z,6.78
2022-08-25T01:37:03.163Z,6.30
2022-08-25T01:39:34.228Z,6.60
2022-08-25T01:42:19.259Z,6.20
2022-08-25T01:44:49.330Z,5.95
2022-08-25T01:47:18.514Z,5.22
2022-08-25T01:49:47.355Z,5.78
2022-08-25T01:52:25.096Z,5.97
2022-08-25T01:54:54.544Z,4.80
2022-08-25T01:57:25.135Z,5.45
2022-08-25T01:59:53.857Z,5.90
2022-08-25T02:02:26.119Z,5.30
2022-08-25T02:04:55.448Z,5.43
2022-08-25T02:09:54.817Z,4.70
2022-08-25T02:12:23.443Z,5.05
2022-08-25T02:14:52.619Z,4.97
2022-08-25T02:17:21.358Z,5.07
2022-08-25T02:19:50.015Z,5.95
2022-08-25T02:22:19.394Z,6.18
2022-08-25T06:28:25.286Z,4.07
2022-08-25T06:31:01.241Z,3.50
2022-08-25T06:33:30.769Z,4.10
2022-08-25T06:36:14.815Z,3.35
2022-08-25T06:38:45.005Z,3.72
2022-08-25T06:41:14.997Z,3.92
2022-08-25T06:43:49.838Z,3.83
2022-08-25T06:46:35.642Z,4.20
2022-08-25T06:49:05.788Z,3.95
2022-08-25T06:51:35.902Z,4.00
2022-08-25T06:54:06.442Z,4.43
2022-08-25T06:56:36.011Z,3.70
2022-08-25T06:59:07.632Z,3.72
2022-08-25T07:01:36.528Z,5.93
2022-08-25T07:04:10.282Z,6.75
2022-08-25T07:06:39.265Z,4.05
2022-08-25T07:09:11.668Z,4.72
2022-08-25T07:11:41.828Z,4.00
2022-08-25T07:14:14.167Z,4.65
2022-08-25T07:16:48.590Z,4.10
2022-08-25T07:19:21.055Z,4.70
2022-08-25T07:21:52.398Z,3.78
2022-08-25T07:24:20.828Z,3.65
2022-08-25T07:26:49.266Z,4.13
2022-08-25T07:29:33.648Z,4.05
2022-08-25T07:32:52.066Z,4.35
2022-08-25T07:35:26.429Z,4.55
2022-08-25T07:38:09.175Z,4.28
2022-08-25T07:40:42.731Z,3.85
2022-08-25T07:43:12.325Z,4.15
2022-08-25T07:48:23.197Z,4.60
2022-08-25T07:50:53.850Z,3.85
2022-08-25T07:53:25.706Z,4.03
2022-08-25T07:55:54.357Z,3.78
2022-08-25T07:58:23.297Z,4.15
2022-08-25T08:00:53.732Z,4.25
2022-08-25T08:03:42.088Z,4.00
2022-08-25T08:06:34.880Z,3.95
2022-08-25T08:09:04.342Z,4.72
2022-08-25T08:11:37.272Z,4.53
2022-08-25T08:14:05.965Z,4.40
2022-08-25T08:16:36.128Z,5.22
2022-08-25T08:19:06.226Z,4.97
2022-08-25T08:21:37.179Z,4.55
2022-08-25T08:24:14.838Z,4.78
2022-08-25T08:26:59.127Z,4.93
2022-08-25T08:29:28.188Z,5.70
2022-08-25T08:32:10.095Z,5.30
2022-08-25T08:34:39.099Z,5.28
2022-08-25T08:37:40.012Z,5.90
2022-08-25T08:40:10.880Z,5.35
2022-08-25T08:42:53.116Z,5.55
2022-08-25T08:45:30.311Z,4.97
2022-08-25T08:48:31.830Z,5.80
2022-08-25T08:51:10.120Z,6.50
2022-08-25T08:53:52.984Z,7.27
2022-08-25T08:56:25.958Z,7.30
2022-08-25T08:59:06.231Z,8.90
2022-08-25T09:01:37.338Z,9.40
2022-08-25T09:04:14.617Z,10.57
2022-08-25T09:06:47.993Z,10.13
2022-08-25T09:09:26.827Z,10.35
2022-08-25T09:14:53.891Z,9.27
2022-08-25T09:20:18.850Z,10.20
2022-08-25T09:22:55.803Z,9.68
2022-08-25T09:28:21.892Z,11.40
2022-08-25T09:30:56.553Z,10.02
2022-08-25T09:33:27.587Z,9.32
2022-08-25T09:35:58.861Z,8.60
2022-08-25T09:38:32.007Z,9.20
2022-08-25T09:41:03.209Z,9.43
2022-08-25T09:43:34.626Z,8.93
2022-08-25T09:46:11.517Z,9.13
2022-08-25T09:48:55.713Z,8.98
2022-08-25T09:51:42.995Z,8.88
2022-08-25T09:54:21.286Z,9.43
2022-08-25T09:56:56.263Z,10.50
2022-08-25T09:59:34.460Z,9.95
2022-08-25T10:02:23.780Z,10.05
2022-08-25T10:04:53.557Z,10.48
2022-08-25T10:07:28.243Z,11.35
2022-08-25T10:10:01.805Z,10.63
2022-08-25T10:12:42.637Z,11.18
2022-08-25T10:15:29.113Z,11.95
2022-08-25T10:18:19.777Z,11.60
2022-08-25T10:21:04.353Z,10.73
2022-08-25T10:23:41.246Z,10.45
2022-08-25T10:26:17.095Z,10.63
2022-08-25T10:28:56.369Z,10.27
2022-08-25T10:31:34.715Z,10.35
2022-08-25T10:34:20.103Z,9.67
2022-08-25T10:37:11.727Z,9.23
2022-08-25T10:39:45.554Z,8.93
2022-08-25T10:42:35.348Z,9.07
2022-08-25T10:45:36.266Z,8.80
2022-08-25T10:48:20.313Z,8.48
2022-08-25T10:50:57.879Z,8.77
2022-08-25T10:53:31.203Z,8.05
2022-08-25T10:56:07.793Z,7.95
2022-08-25T10:58:57.014Z,7.28
2022-08-25T11:01:42.983Z,8.32
2022-08-25T11:04:18.297Z,8.15
2022-08-25T11:06:54.674Z,7.85
2022-08-25T11:09:28.624Z,7.15
2022-08-25T11:12:02.012Z,6.95
2022-08-25T11:14:37.166Z,6.72
2022-08-25T11:17:12.084Z,7.38
2022-08-25T11:19:45.484Z,7.05
2022-08-25T11:22:21.178Z,7.05
2022-08-25T11:24:59.514Z,7.25
2022-08-25T11:27:34.242Z,6.70
2022-08-25T11:30:08.610Z,7.20
2022-08-25T11:32:39.231Z,6.20
2022-08-25T11:35:13.486Z,6.47
2022-08-25T11:37:49.395Z,6.50
2022-08-25T11:40:37.975Z,6.43
2022-08-25T11:46:02.307Z,6.43
2022-08-25T11:48:43.719Z,6.35
2022-08-25T11:51:33.721Z,6.82
2022-08-25T11:54:21.575Z,6.38
2022-08-25T11:56:58.657Z,5.97
2022-08-25T12:00:08.740Z,5.97
2022-08-25T12:02:41.526Z,6.07
2022-08-25T12:05:14.233Z,5.82
2022-08-25T12:08:22.710Z,5.93
2022-08-25T12:10:58.952Z,5.43
2022-08-25T12:13:44.552Z,6.10
2022-08-25T12:16:44.580Z,6.32
2022-08-25T12:19:31.952Z,6.32
2022-08-25T12:22:39.063Z,5.80
2022-08-25T12:25:21.659Z,5.90
2022-08-25T12:28:09.089Z,6.05
2022-08-25T12:30:47.241Z,6.53
2022-08-25T12:33:34.150Z,6.00
2022-08-25T12:36:04.989Z,7.15
2022-08-25T12:38:42.477Z,6.70
2022-08-25T12:41:18.649Z,5.82
2022-08-25T12:43:49.765Z,6.72
2022-08-25T12:46:44.749Z,6.15
2022-08-25T12:49:31.489Z,7.30
2022-08-25T12:52:03.674Z,6.22
2022-08-25T12:54:43.822Z,6.72
2022-08-25T12:57:40.300Z,7.05
2022-08-25T13:00:18.592Z,7.20
2022-08-25T13:03:27.745Z,7.32
2022-08-25T13:06:23.080Z,6.50
2022-08-25T13:09:19.440Z,6.60
2022-08-25T13:11:54.946Z,8.43
2022-08-25T13:14:37.855Z,8.60
2022-08-25T13:17:07.067Z,8.68
2022-08-25T13:19:38.988Z,10.27
2022-08-25T13:22:16.152Z,9.25
2022-08-25T13:27:29.319Z,8.73
2022-08-25T13:30:03.904Z,8.80
2022-08-25T13:32:35.457Z,9.27
2022-08-25T13:35:17.500Z,9.15
2022-08-25T13:37:46.129Z,9.00
2022-08-25T13:40:17.661Z,8.75
2022-08-25T13:42:54.477Z,8.38
2022-08-25T13:45:30.030Z,9.10
2022-08-25T13:47:59.973Z,8.27
2022-08-25T13:50:34.979Z,8.70
2022-08-25T13:53:08.535Z,9.38
2022-08-25T13:55:52.230Z,9.10
2022-08-25T13:58:24.736Z,9.10
2022-08-25T14:01:23.194Z,8.98
2022-08-25T14:04:26.859Z,8.95
2022-08-25T14:07:13.582Z,8.35
2022-08-25T14:09:47.659Z,8.07
2022-08-25T14:12:33.186Z,9.70
2022-08-25T14:15:04.897Z,9.20
2022-08-25T14:17:39.031Z,9.65
2022-08-25T14:20:19.391Z,8.52
2022-08-25T14:22:47.953Z,8.15
2022-08-25T14:25:16.419Z,7.80
2022-08-25T14:28:06.822Z,8.00
2022-08-25T14:30:38.329Z,7.88
2022-08-25T14:33:07.415Z,9.07
2022-08-25T14:35:39.342Z,8.32
2022-08-25T14:38:11.528Z,9.13
2022-08-25T14:40:40.661Z,11.07
2022-08-25T14:48:10.865Z,10.70
2022-08-25T14:50:42.069Z,10.15
2022-08-25T14:53:12.693Z,11.40
2022-08-25T14:55:42.122Z,11.57
2022-08-25T14:58:10.334Z,10.83
2022-08-25T15:00:42.883Z,10.93
2022-08-25T15:03:15.571Z,11.57
2022-08-25T15:05:45.684Z,11.43
2022-08-25T15:08:33.356Z,9.98
2022-08-25T15:11:02.367Z,10.53
2022-08-25T15:13:37.222Z,10.63
2022-08-25T15:16:06.330Z,10.52
2022-08-25T15:18:34.533Z,10.73
2022-08-25T15:21:04.350Z,10.90
2022-08-25T15:23:32.831Z,11.75
2022-08-25T15:26:03.643Z,11.95
2022-08-25T15:28:33.902Z,11.88
2022-08-25T15:31:04.024Z,11.50
2022-08-25T15:33:32.503Z,11.57
2022-08-25T15:36:01.551Z,11.80
2022-08-25T15:38:32.492Z,12.80
2022-08-25T15:41:00.750Z,11.07
2022-08-25T15:43:29.096Z,11.48
2022-08-25T15:45:58.853Z,11.45
2022-08-25T15:48:41.154Z,12.03
2022-08-25T15:51:09.970Z,11.63
2022-08-25T15:53:40.912Z,11.63
2022-08-25T15:56:14.168Z,11.00
2022-08-25T15:58:46.390Z,10.82
2022-08-25T16:01:20.739Z,11.63
2022-08-25T16:03:49.915Z,10.85
2022-08-25T16:06:19.375Z,10.07
2022-08-25T16:08:49.330Z,9.15
2022-08-25T16:11:20.019Z,8.60
2022-08-25T16:13:51.370Z,8.38
2022-08-25T16:16:21.924Z,8.85
2022-08-25T16:18:50.913Z,8.63
2022-08-25T16:21:25.680Z,8.90
2022-08-25T16:24:05.463Z,8.35
2022-08-25T16:26:48.058Z,8.63
2022-08-25T16:29:17.059Z,7.65
2022-08-25T16:31:45.560Z,7.47
2022-08-25T16:34:22.277Z,7.18
2022-08-25T16:36:53.187Z,7.97
2022-08-25T16:39:24.072Z,8.10
2022-08-25T16:41:52.856Z,8.45
2022-08-25T16:44:22.994Z,7.32
2022-08-25T16:46:54.597Z,7.25
2022-08-25T16:49:24.381Z,7.10
2022-08-25T16:51:57.323Z,7.70
2022-08-25T16:54:45.647Z,7.57
2022-08-25T16:57:15.658Z,7.47
2022-08-25T16:59:44.066Z,8.65
2022-08-25T17:02:12.441Z,9.38
2022-08-25T17:04:41.128Z,9.10
2022-08-25T17:07:09.809Z,8.88
2022-08-25T17:09:39.417Z,8.27
2022-08-25T17:12:09.602Z,8.85
2022-08-25T17:14:38.616Z,10.00
2022-08-25T17:17:07.070Z,10.80
2022-08-25T17:19:35.531Z,11.20
2022-08-25T17:22:04.071Z,10.93
2022-08-25T17:24:34.891Z,9.90
2022-08-25T17:27:05.073Z,9.95
2022-08-25T17:29:35.043Z,13.63
2022-08-25T17:32:03.851Z,11.60
2022-08-25T17:34:32.880Z,10.85
2022-08-25T17:39:31.335Z,10.85
2022-08-25T17:42:00.909Z,11.00
2022-08-25T17:44:31.093Z,10.70
2022-08-25T17:46:59.667Z,10.85
2022-08-25T17:49:28.508Z,11.10
2022-08-25T17:51:56.959Z,10.48
2022-08-25T17:54:25.181Z,10.13
2022-08-25T17:56:54.666Z,10.02
2022-08-25T18:01:55.441Z,11.23
2022-08-25T18:04:24.367Z,10.45
2022-08-25T18:07:00.310Z,11.38
2022-08-25T18:09:29.264Z,10.00
2022-08-25T18:11:58.382Z,10.23
2022-08-25T18:16:57.282Z,10.15
2022-08-25T18:19:25.940Z,9.73
2022-08-25T18:21:54.438Z,10.05
2022-08-25T18:24:23.556Z,9.73
2022-08-25T18:29:21.174Z,9.18
2022-08-25T18:31:51.882Z,9.55
2022-08-25T18:34:24.255Z,9.38
2022-08-25T18:36:54.020Z,9.95
2022-08-25T18:39:39.657Z,8.95
2022-08-25T18:42:08.970Z,9.13
2022-08-25T18:44:37.428Z,9.30
2022-08-25T18:47:07.877Z,10.33
2022-08-25T18:49:38.557Z,10.63
2022-08-25T18:52:08.026Z,10.70
2022-08-25T18:54:36.638Z,10.73
2022-08-25T18:57:08.793Z,10.65
2022-08-25T18:59:37.893Z,12.10
2022-08-25T19:02:07.182Z,10.60
2022-08-25T19:04:35.527Z,11.30
2022-08-25T19:07:07.917Z,12.18
2022-08-25T19:09:36.982Z,12.60
2022-08-25T19:12:07.099Z,12.20
2022-08-25T19:14:40.567Z,13.68
2022-08-25T19:17:10.621Z,13.13
2022-08-25T19:19:38.893Z,14.48
2022-08-25T19:22:31.844Z,13.80
2022-08-25T19:24:57.935Z,13.43
2022-08-25T19:27:27.163Z,13.82
2022-08-25T19:29:56.308Z,14.63
2022-08-25T19:32:25.551Z,14.05
2022-08-25T19:34:55.529Z,14.60
2022-08-25T19:37:28.353Z,15.75
2022-08-25T19:39:57.351Z,16.27
2022-08-25T19:42:35.039Z,15.32
2022-08-25T19:45:08.192Z,15.23
2022-08-25T19:47:37.674Z,15.88
2022-08-25T19:50:07.189Z,16.25
2022-08-25T19:52:37.447Z,16.15
2022-08-25T19:55:06.264Z,15.70
2022-08-25T19:57:42.653Z,16.17
2022-08-25T20:00:15.088Z,16.80
2022-08-25T20:02:47.429Z,17.13
2022-08-25T20:05:23.798Z,16.30
2022-08-25T20:07:54.834Z,17.83
2022-08-25T20:10:25.146Z,16.30
2022-08-25T20:12:54.827Z,16.15
2022-08-25T20:15:23.737Z,16.77
2022-08-25T20:17:56.491Z,15.02
2022-08-25T20:20:24.996Z,18.35
2022-08-25T20:23:16.410Z,16.80
2022-08-25T20:25:44.828Z,16.35
2022-08-25T20:28:18.948Z,17.15
2022-08-25T20:30:47.508Z,16.13
2022-08-25T20:33:20.186Z,15.70
2022-08-25T20:35:53.221Z,16.42
2022-08-25T20:38:23.138Z,15.80
2022-08-25T20:40:51.451Z,15.40
2022-08-25T20:43:20.756Z,15.50
2022-08-25T20:45:53.367Z,15.75
2022-08-25T20:48:21.820Z,15.27
2022-08-25T20:50:57.924Z,15.52
2022-08-25T20:53:28.013Z,15.60
2022-08-25T20:55:56.466Z,14.93
2022-08-25T20:58:25.000Z,14.20
2022-08-25T21:00:55.280Z,15.43
2022-08-25T21:03:24.060Z,14.95
2022-08-25T21:05:54.140Z,15.52
2022-08-25T21:08:23.815Z,14.88
2022-08-25T21:10:55.337Z,15.18
2022-08-25T21:13:23.615Z,15.32
2022-08-25T21:15:51.815Z,14.55
2022-08-25T21:18:20.763Z,13.82
2022-08-25T21:20:48.936Z,13.63
2022-08-25T21:23:17.057Z,13.68
2022-08-25T21:25:45.741Z,14.23
2022-08-25T21:28:15.565Z,13.43
2022-08-25T21:30:47.132Z,14.00
2022-08-25T21:33:15.888Z,13.77
2022-08-25T21:35:44.146Z,14.25
2022-08-25T21:38:15.804Z,13.85
2022-08-25T21:40:44.980Z,13.27
2022-08-25T21:43:13.439Z,13.48
2022-08-25T21:45:46.664Z,13.65
2022-08-25T21:48:15.569Z,13.48
2022-08-25T21:50:43.723Z,13.55
2022-08-25T21:53:12.098Z,13.53
2022-08-25T21:55:44.120Z,13.80
2022-08-25T21:58:12.293Z,13.95
2022-08-25T22:00:44.718Z,15.63
2022-08-25T22:03:12.886Z,14.57
2022-08-25T22:05:41.373Z,14.85
2022-08-25T22:08:13.916Z,14.90
2022-08-25T22:10:44.765Z,15.05
2022-08-25T22:13:12.893Z,15.00
2022-08-25T22:15:42.767Z,15.27
2022-08-25T22:18:11.071Z,14.15
2022-08-25T22:20:39.311Z,15.27
2022-08-25T22:23:10.036Z,15.65
2022-08-25T22:25:49.157Z,15.65
2022-08-25T22:28:17.553Z,15.32
2022-08-25T22:30:47.136Z,15.43
2022-08-25T22:33:16.195Z,14.48
2022-08-25T22:35:45.022Z,15.80
2022-08-25T22:38:13.289Z,15.57
2022-08-25T22:40:42.329Z,15.52
2022-08-25T22:43:10.960Z,15.15
2022-08-25T22:45:39.925Z,15.38
2022-08-25T22:48:09.715Z,15.05
2022-08-25T22:50:38.438Z,15.88
2022-08-25T22:53:07.949Z,14.75
2022-08-25T22:55:43.204Z,14.68
2022-08-25T22:58:12.521Z,14.02
2022-08-25T23:00:41.606Z,14.43
2022-08-25T23:03:12.295Z,14.18
2022-08-25T23:05:41.172Z,13.93
2022-08-25T23:08:09.468Z,14.40
2022-08-25T23:10:37.701Z,14.40
2022-08-25T23:13:07.125Z,14.50
2022-08-25T23:15:35.588Z,14.90
2022-08-25T23:18:05.170Z,14.60
2022-08-25T23:20:56.804Z,14.40
2022-08-25T23:23:25.292Z,14.38
2022-08-25T23:25:54.073Z,15.15
2022-08-25T23:28:22.327Z,13.73
2022-08-25T23:30:59.063Z,13.90
2022-08-25T23:33:28.439Z,14.15
2022-08-25T23:36:02.206Z,14.70
2022-08-25T23:38:31.057Z,13.48
2022-08-25T23:40:59.708Z,14.38
2022-08-25T23:43:27.832Z,14.68
2022-08-25T23:45:56.813Z,14.55
2022-08-25T23:48:25.239Z,13.70
2022-08-25T23:50:54.107Z,13.00
2022-08-25T23:53:24.236Z,15.20
2022-08-25T23:55:53.173Z,13.82
2022-08-25T23:58:22.989Z,14.93
